createdAt,value
2023-03-26T00:02:46.013Z,100.00
2023-03-26T00:07:48.655Z,100.00
2023-03-26T00:12:50.162Z,100.00
2023-03-26T00:17:54.180Z,100.00
2023-03-26T00:22:56.342Z,100.00
2023-03-26T00:27:58.880Z,100.00
2023-03-26T00:33:00.687Z,100.00
2023-03-26T00:38:02.668Z,100.00
2023-03-26T00:43:18.446Z,100.00
2023-03-26T00:48:34.340Z,100.00
2023-03-26T00:53:45.708Z,100.00
2023-03-26T00:58:50.023Z,100.00
2023-03-26T01:04:08.304Z,100.00
2023-03-26T01:09:19.003Z,100.00
2023-03-26T01:14:25.000Z,100.00
2023-03-26T01:19:45.525Z,100.00
2023-03-26T01:24:53.036Z,100.00
2023-03-26T01:30:03.728Z,100.00
2023-03-26T01:35:18.984Z,100.00
2023-03-26T01:40:42.478Z,100.00
2023-03-26T01:45:47.754Z,100.00
2023-03-26T01:50:53.504Z,100.00
2023-03-26T01:56:24.111Z,100.00
2023-03-26T02:01:59.895Z,100.00
2023-03-26T02:07:20.932Z,100.00
2023-03-26T02:12:23.721Z,100.00
2023-03-26T02:17:25.399Z,100.00
2023-03-26T02:22:30.009Z,100.00
2023-03-26T02:27:33.982Z,100.00
2023-03-26T02:32:35.846Z,100.00
2023-03-26T02:37:38.280Z,100.00
2023-03-26T02:42:48.873Z,100.00
2023-03-26T02:47:51.081Z,100.00
2023-03-26T02:53:16.919Z,100.00
2023-03-26T02:58:25.202Z,100.00
2023-03-26T03:03:27.662Z,100.00
2023-03-26T03:08:35.140Z,100.00
2023-03-26T03:13:51.991Z,100.00
2023-03-26T03:18:58.407Z,100.00
2023-03-26T03:24:13.785Z,100.00
2023-03-26T03:29:18.731Z,100.00
2023-03-26T03:34:21.680Z,100.00
2023-03-26T03:39:25.678Z,100.00
2023-03-26T03:44:27.465Z,100.00
2023-03-26T03:49:29.600Z,100.00
2023-03-26T03:54:32.367Z,100.00
2023-03-26T03:59:49.214Z,100.00
2023-03-26T04:04:53.144Z,100.00
2023-03-26T04:09:57.186Z,100.00
2023-03-26T04:15:00.582Z,100.00
2023-03-26T04:20:06.882Z,100.00
2023-03-26T04:25:10.052Z,100.00
2023-03-26T04:30:20.682Z,100.00
2023-03-26T04:35:30.417Z,100.00
2023-03-26T04:40:34.614Z,100.00
2023-03-26T04:46:03.339Z,100.00
2023-03-26T04:51:10.319Z,100.00
2023-03-26T04:56:32.509Z,100.00
2023-03-26T05:01:53.640Z,100.00
2023-03-26T05:06:58.408Z,100.00
2023-03-26T05:12:08.660Z,100.00
2023-03-26T05:17:24.554Z,100.00
2023-03-26T05:22:26.313Z,100.00
2023-03-26T05:27:44.564Z,100.00
2023-03-26T05:32:48.836Z,100.00
2023-03-26T05:37:53.334Z,100.00
2023-03-26T05:42:58.236Z,100.00
2023-03-26T05:48:11.657Z,100.00
2023-03-26T05:53:13.224Z,100.00
2023-03-26T05:58:47.569Z,100.00
2023-03-26T06:04:18.335Z,100.00
2023-03-26T06:09:45.832Z,100.00
2023-03-26T06:14:47.650Z,100.00
2023-03-26T06:20:09.573Z,100.00
2023-03-26T06:25:17.451Z,100.00
2023-03-26T06:30:30.351Z,100.00
2023-03-26T06:35:40.878Z,100.00
2023-03-26T06:40:42.513Z,100.00
2023-03-26T06:46:09.281Z,100.00
2023-03-26T06:51:13.415Z,100.00
2023-03-26T06:56:33.269Z,100.00
2023-03-26T07:01:54.876Z,100.00
2023-03-26T07:07:15.032Z,100.00
2023-03-26T07:12:53.402Z,100.00
2023-03-26T07:18:13.584Z,100.00
2023-03-26T07:23:20.483Z,100.00
2023-03-26T07:29:03.766Z,100.00
2023-03-26T07:34:46.282Z,100.00
2023-03-26T07:40:17.662Z,100.00
2023-03-26T07:45:45.063Z,100.00
2023-03-26T07:51:25.398Z,100.00
2023-03-26T07:56:38.909Z,100.00
2023-03-26T08:02:31.538Z,100.00
2023-03-26T08:08:00.834Z,100.00
2023-03-26T08:13:35.801Z,100.00
2023-03-26T08:18:54.582Z,100.00
2023-03-26T08:24:12.558Z,100.00
2023-03-26T08:29:29.304Z,100.00
2023-03-26T08:34:30.990Z,100.00
2023-03-26T08:39:32.515Z,100.00
2023-03-26T08:44:47.738Z,100.00
2023-03-26T08:50:29.945Z,100.00
2023-03-26T08:55:48.768Z,100.00
2023-03-26T09:01:09.124Z,100.00
2023-03-26T09:06:40.888Z,100.00
2023-03-26T09:12:01.919Z,100.00
2023-03-26T09:17:36.856Z,100.00
2023-03-26T09:22:56.298Z,100.00
2023-03-26T09:28:35.280Z,100.00
2023-03-26T09:34:01.515Z,100.00
2023-03-26T09:39:10.112Z,100.00
2023-03-26T09:44:14.302Z,100.00
2023-03-26T09:49:38.991Z,100.00
2023-03-26T09:54:58.626Z,100.00
2023-03-26T10:00:15.884Z,100.00
2023-03-26T10:05:26.784Z,100.00
2023-03-26T10:10:55.677Z,100.00
2023-03-26T10:16:15.484Z,100.00
2023-03-26T10:21:28.509Z,100.00
2023-03-26T10:27:08.649Z,98.75
2023-03-26T10:32:25.748Z,97.61
2023-03-26T10:37:41.435Z,94.75
2023-03-26T10:43:19.706Z,93.03
2023-03-26T10:48:41.969Z,85.06
2023-03-26T10:53:49.301Z,77.65
2023-03-26T10:58:51.349Z,81.18
2023-03-26T11:03:55.650Z,78.81
2023-03-26T11:09:13.655Z,75.70
2023-03-26T11:14:33.772Z,73.48
2023-03-26T11:19:48.301Z,73.51
2023-03-26T11:25:00.994Z,74.03
2023-03-26T11:30:22.513Z,67.83
2023-03-26T11:35:40.969Z,66.77
2023-03-26T11:40:50.549Z,66.22
2023-03-26T11:46:04.218Z,64.12
2023-03-26T11:51:10.300Z,65.37
2023-03-26T11:56:24.567Z,64.48
2023-03-26T12:01:30.999Z,63.97
2023-03-26T12:06:33.055Z,62.05
2023-03-26T12:11:35.822Z,63.75
2023-03-26T12:16:37.450Z,61.39
2023-03-26T12:21:50.559Z,61.48
2023-03-26T12:26:58.396Z,62.48
2023-03-26T12:32:14.972Z,60.60
2023-03-26T12:37:36.169Z,59.14
2023-03-26T12:44:47.212Z,59.92
2023-03-26T12:48:04.083Z,58.64
2023-03-26T12:53:21.112Z,59.01
2023-03-26T12:58:43.424Z,59.50
2023-03-26T13:04:22.386Z,59.82
2023-03-26T13:09:37.704Z,59.76
2023-03-26T13:15:18.120Z,58.06
2023-03-26T13:20:48.782Z,55.51
2023-03-26T13:26:11.361Z,56.03
2023-03-26T13:31:31.661Z,55.62
2023-03-26T13:36:42.613Z,53.83
2023-03-26T13:42:07.156Z,55.02
2023-03-26T13:47:18.572Z,53.91
2023-03-26T13:52:27.582Z,55.11
2023-03-26T13:57:41.595Z,59.11
2023-03-26T14:02:47.743Z,66.26
2023-03-26T14:07:55.147Z,74.52
2023-03-26T14:13:17.746Z,81.12
2023-03-26T14:18:33.878Z,86.65
2023-03-26T14:23:57.315Z,89.31
2023-03-26T14:29:04.801Z,92.40
2023-03-26T14:34:26.631Z,95.92
2023-03-26T14:39:54.073Z,97.12
2023-03-26T14:45:07.767Z,99.34
2023-03-26T14:50:48.081Z,100.00
2023-03-26T14:56:10.252Z,100.00
2023-03-26T15:01:25.352Z,100.00
2023-03-26T15:06:45.457Z,100.00
2023-03-26T15:12:24.380Z,100.00
2023-03-26T15:17:45.035Z,100.00
2023-03-26T15:23:23.996Z,100.00
2023-03-26T15:29:11.791Z,100.00
2023-03-26T15:34:45.056Z,100.00
2023-03-26T15:40:36.268Z,100.00
2023-03-26T15:45:45.265Z,100.00
2023-03-26T15:51:08.330Z,100.00
2023-03-26T15:56:49.251Z,100.00
2023-03-26T16:02:16.098Z,100.00
2023-03-26T16:07:41.372Z,100.00
2023-03-26T16:13:20.661Z,100.00
2023-03-26T16:18:45.005Z,100.00
2023-03-26T16:23:49.718Z,100.00
2023-03-26T16:28:52.878Z,100.00
2023-03-26T16:34:17.761Z,100.00
2023-03-26T16:39:23.048Z,100.00
2023-03-26T16:44:49.602Z,100.00
2023-03-26T16:50:07.382Z,100.00
2023-03-26T16:55:28.607Z,100.00
2023-03-26T17:01:02.071Z,100.00
2023-03-26T17:06:30.031Z,100.00
2023-03-26T17:11:46.275Z,100.00
2023-03-26T17:17:17.048Z,100.00
2023-03-26T17:22:34.901Z,100.00
2023-03-26T17:27:43.931Z,100.00
2023-03-26T17:33:06.250Z,100.00
2023-03-26T17:38:16.888Z,100.00
2023-03-26T17:43:56.687Z,100.00
2023-03-26T17:49:18.423Z,100.00
2023-03-26T17:54:27.156Z,100.00
2023-03-26T17:59:29.391Z,100.00
2023-03-26T18:04:36.437Z,100.00
2023-03-26T18:10:04.954Z,100.00
2023-03-26T18:15:27.871Z,100.00
2023-03-26T18:20:29.677Z,100.00
2023-03-26T18:25:34.072Z,100.00
2023-03-26T18:30:46.944Z,100.00
2023-03-26T18:35:55.595Z,100.00
2023-03-26T18:40:57.576Z,100.00
2023-03-26T18:45:59.368Z,100.00
2023-03-26T18:51:05.750Z,100.00
2023-03-26T18:56:20.761Z,100.00
2023-03-26T19:01:25.950Z,100.00
2023-03-26T19:06:28.841Z,100.00
2023-03-26T19:11:30.544Z,100.00
2023-03-26T19:16:35.518Z,100.00
2023-03-26T19:21:37.186Z,100.00
2023-03-26T19:26:38.786Z,100.00
2023-03-26T19:31:40.591Z,100.00
2023-03-26T19:37:22.085Z,100.00
2023-03-26T19:42:44.078Z,100.00
2023-03-26T19:47:50.110Z,100.00
2023-03-26T19:53:37.308Z,100.00
2023-03-26T19:58:42.784Z,100.00
2023-03-26T20:03:48.024Z,100.00
2023-03-26T20:08:51.282Z,100.00
2023-03-26T20:13:52.909Z,100.00
2023-03-26T20:18:58.402Z,100.00
2023-03-26T20:24:00.756Z,100.00
2023-03-26T20:29:03.464Z,100.00
2023-03-26T20:34:07.345Z,100.00
2023-03-26T20:39:09.600Z,100.00
2023-03-26T20:44:15.121Z,100.00
2023-03-26T20:49:17.863Z,100.00
2023-03-26T20:54:23.329Z,100.00
2023-03-26T20:59:27.497Z,100.00
2023-03-26T21:04:29.230Z,100.00
2023-03-26T21:09:34.951Z,100.00
2023-03-26T21:14:41.063Z,100.00
2023-03-26T21:19:43.702Z,100.00
2023-03-26T21:24:54.744Z,100.00
2023-03-26T21:29:58.102Z,100.00
2023-03-26T21:35:00.019Z,100.00
2023-03-26T21:40:12.471Z,100.00
2023-03-26T21:45:15.160Z,100.00
2023-03-26T21:50:20.549Z,100.00
2023-03-26T21:55:23.729Z,100.00
2023-03-26T22:00:43.180Z,100.00
2023-03-26T22:05:54.273Z,100.00
2023-03-26T22:10:56.391Z,100.00
2023-03-26T22:15:58.087Z,100.00
2023-03-26T22:21:00.061Z,100.00
2023-03-26T22:26:02.869Z,100.00
2023-03-26T22:31:08.846Z,100.00
2023-03-26T22:36:23.286Z,100.00
2023-03-26T22:41:25.776Z,100.00
2023-03-26T22:46:27.713Z,100.00
2023-03-26T22:51:30.046Z,100.00
2023-03-26T22:56:31.782Z,100.00
2023-03-26T23:01:34.646Z,100.00
2023-03-26T23:06:36.165Z,100.00
2023-03-26T23:11:37.676Z,100.00
2023-03-26T23:16:39.239Z,100.00
2023-03-26T23:21:40.745Z,100.00
2023-03-26T23:26:50.474Z,100.00
2023-03-26T23:31:54.023Z,100.00
2023-03-26T23:36:55.619Z,100.00
2023-03-26T23:41:57.143Z,100.00
2023-03-26T23:47:00.502Z,100.00
2023-03-26T23:52:02.045Z,100.00
2023-03-26T23:57:04.114Z,100.00
